Time;durP1;ratioP1;P1;durP2;ratioP2;P2;SDS_P1;SDS_P2;PMS_P1;PMS_P2;Temp;Humidity;BMP_temperature;BMP_pressure;BME280_temperature;BME280_humidity;BME280_pressure;Samples;Min_cycle;Max_cycle;Signal;HPM_P1;HPM_P2
2022/09/12 00:00:25;;;;;;;5.63;3.92;;;;;;;;;;2023613;29;20088;-89
2022/09/12 00:01:26;;;;;;;5.10;4.25;;;;;;;;;;2031629;29;20036;-89
2022/09/12 00:02:26;;;;;;;6.30;3.83;;;;;;;;;;2039739;29;20145;-89
2022/09/12 00:03:27;;;;;;;5.88;4.10;;;;;;;;;;2031341;29;20111;-89
2022/09/12 00:04:27;;;;;;;7.25;4.88;;;;;;;;;;2023323;29;20514;-88
2022/09/12 00:05:29;;;;;;;6.72;4.30;;;;;;;;;;2031287;29;20036;-89
2022/09/12 00:06:33;;;;;;;5.70;4.60;;;;;;;;;;2039803;29;20028;-90
2022/09/12 00:07:33;;;;;;;6.03;4.13;;;;;;;;;;2039667;29;20395;-90
2022/09/12 00:08:34;;;;;;;5.65;3.70;;;;;;;;;;2031129;29;20058;-89
2022/09/12 00:09:34;;;;;;;5.65;4.22;;;;;;;;;;2023105;29;20032;-90
2022/09/12 00:10:39;;;;;;;5.32;4.35;;;;;;;;;;2023313;29;20071;-90
2022/09/12 00:11:43;;;;;;;7.50;4.22;;;;;;;;;;2023775;29;20049;-89
2022/09/12 00:12:44;;;;;;;5.82;4.38;;;;;;;;;;2031543;29;20397;-89
2022/09/12 00:13:44;;;;;;;6.20;4.18;;;;;;;;;;2031045;29;20024;-89
2022/09/12 00:14:45;;;;;;;5.82;4.65;;;;;;;;;;2024352;29;20047;-88
2022/09/12 00:15:45;;;;;;;5.90;4.38;;;;;;;;;;2023858;29;20096;-89
2022/09/12 00:16:46;;;;;;;6.80;4.10;;;;;;;;;;2031690;29;20075;-89
2022/09/12 00:17:46;;;;;;;6.30;4.45;;;;;;;;;;2039928;29;20061;-89
2022/09/12 00:18:47;;;;;;;4.85;3.83;;;;;;;;;;2039338;29;20111;-89
2022/09/12 00:19:48;;;;;;;5.90;4.05;;;;;;;;;;2023119;29;20389;-89
2022/09/12 00:20:48;;;;;;;5.22;3.70;;;;;;;;;;2023209;29;20051;-89
2022/09/12 00:21:48;;;;;;;5.20;3.88;;;;;;;;;;2023080;29;20085;-89
2022/09/12 00:22:49;;;;;;;6.13;4.07;;;;;;;;;;2023015;29;20031;-89
2022/09/12 00:23:50;;;;;;;5.97;3.88;;;;;;;;;;2030860;29;20051;-89
2022/09/12 00:24:50;;;;;;;8.95;4.53;;;;;;;;;;2031059;29;20027;-88
2022/09/12 00:25:51;;;;;;;6.07;4.00;;;;;;;;;;2023226;29;20020;-89
2022/09/12 00:26:51;;;;;;;4.88;3.78;;;;;;;;;;2030864;29;20028;-89
2022/09/12 00:27:51;;;;;;;8.27;4.68;;;;;;;;;;2039551;29;20270;-89
2022/09/12 00:28:52;;;;;;;5.88;4.25;;;;;;;;;;2030879;29;20260;-89
2022/09/12 00:29:53;;;;;;;6.50;4.00;;;;;;;;;;2031083;29;20799;-89
2022/09/12 00:30:53;;;;;;;6.18;3.90;;;;;;;;;;2030930;29;20024;-89
2022/09/12 00:31:53;;;;;;;6.10;4.78;;;;;;;;;;2023357;29;20027;-88
2022/09/12 00:32:54;;;;;;;7.22;4.32;;;;;;;;;;2031025;29;20035;-89
2022/09/12 00:33:57;;;;;;;8.93;4.97;;;;;;;;;;2038793;29;20035;-89
2022/09/12 00:34:57;;;;;;;5.35;4.32;;;;;;;;;;2038874;29;20098;-89
2022/09/12 00:35:58;;;;;;;8.45;4.93;;;;;;;;;;2030866;29;20508;-89
2022/09/12 00:36:58;;;;;;;7.38;4.57;;;;;;;;;;2022994;29;20031;-89
2022/09/12 00:37:58;;;;;;;7.07;4.90;;;;;;;;;;2030939;29;20475;-89
2022/09/12 00:38:59;;;;;;;6.63;4.63;;;;;;;;;;2023036;29;20025;-89
2022/09/12 00:39:59;;;;;;;7.68;5.18;;;;;;;;;;2030876;29;20462;-89
2022/09/12 00:41:00;;;;;;;7.22;4.88;;;;;;;;;;2039515;29;20491;-89
2022/09/12 00:42:00;;;;;;;7.35;4.75;;;;;;;;;;2030764;29;20056;-89
2022/09/12 00:43:01;;;;;;;7.88;5.15;;;;;;;;;;2031063;29;20032;-89
2022/09/12 00:44:23;;;;;;;7.28;5.53;;;;;;;;;;2030222;29;20199;-90
2022/09/12 00:45:27;;;;;;;7.15;5.10;;;;;;;;;;2030623;29;20027;-90
2022/09/12 00:46:49;;;;;;;7.07;5.25;;;;;;;;;;2023573;29;20035;-89
2022/09/12 00:47:49;;;;;;;;;;;;;;;;;;2034149;29;20405;-90
2022/09/12 00:48:58;;;;;;;8.17;4.83;;;;;;;;;;2038732;29;19911;-90
2022/09/12 00:50:02;;;;;;;8.27;5.32;;;;;;;;;;2024125;29;20495;-90
2022/09/12 00:51:03;;;;;;;7.68;4.93;;;;;;;;;;2031406;29;20028;-90
2022/09/12 00:52:15;;;;;;;10.00;5.32;;;;;;;;;;2030783;29;20441;-89
2022/09/12 00:53:16;;;;;;;7.00;5.15;;;;;;;;;;2032680;29;20498;-88
2022/09/12 00:54:23;;;;;;;8.02;5.45;;;;;;;;;;2030794;29;20082;-89
2022/09/12 00:55:27;;;;;;;7.30;4.97;;;;;;;;;;1692863;29;10001662;-89
2022/09/12 00:56:28;;;;;;;8.98;4.80;;;;;;;;;;2030741;29;20052;-89
2022/09/12 00:57:34;;;;;;;6.05;4.50;;;;;;;;;;2030824;29;20030;-89
2022/09/12 00:58:41;;;;;;;5.78;4.55;;;;;;;;;;2038561;29;20106;-90
2022/09/12 00:59:58;;;;;;;6.75;5.22;;;;;;;;;;2030932;29;20055;-90
2022/09/12 01:00:58;;;;;;;6.97;5.07;;;;;;;;;;2032547;29;20420;-90
2022/09/12 01:01:59;;;;;;;6.60;4.60;;;;;;;;;;2030667;29;20083;-89
2022/09/12 01:03:09;;;;;;;6.45;5.13;;;;;;;;;;2030916;29;20150;-89
2022/09/12 01:04:11;;;;;;;8.03;5.20;;;;;;;;;;2030615;29;20203;-89
2022/09/12 01:05:13;;;;;;;6.90;5.13;;;;;;;;;;2022982;29;20277;-89
2022/09/12 01:06:20;;;;;;;6.47;4.80;;;;;;;;;;2030758;29;20024;-89
2022/09/12 01:07:20;;;;;;;9.10;5.38;;;;;;;;;;2031728;29;20095;-90
2022/09/12 01:08:22;;;;;;;6.95;4.90;;;;;;;;;;2039267;29;20495;-89
2022/09/12 01:09:24;;;;;;;6.80;5.15;;;;;;;;;;2030597;29;20063;-89
2022/09/12 01:10:24;;;;;;;6.38;4.57;;;;;;;;;;2022977;29;20042;-89
2022/09/12 01:11:25;;;;;;;7.65;5.20;;;;;;;;;;2030749;29;20032;-89
2022/09/12 01:12:26;;;;;;;8.77;4.75;;;;;;;;;;2039241;29;20067;-90
2022/09/12 01:13:27;;;;;;;7.13;5.32;;;;;;;;;;2032177;29;20055;-89
2022/09/12 01:14:29;;;;;;;8.70;5.38;;;;;;;;;;2034137;29;20464;-89
2022/09/12 01:15:30;;;;;;;8.10;5.13;;;;;;;;;;2041438;29;20027;-89
2022/09/12 01:16:33;;;;;;;7.38;5.18;;;;;;;;;;2040835;29;20031;-90
2022/09/12 01:17:41;;;;;;;8.02;5.65;;;;;;;;;;2030642;29;20091;-89
2022/09/12 01:19:00;;;;;;;7.70;5.57;;;;;;;;;;2031712;29;20036;-89
2022/09/12 01:20:19;;;;;;;6.60;5.07;;;;;;;;;;2030835;29;20032;-89
2022/09/12 01:21:44;;;;;;;7.07;4.65;;;;;;;;;;2025305;29;20037;-89
2022/09/12 01:23:29;;;;;;;6.82;5.13;;;;;;;;;;2033788;29;20031;-89
2022/09/12 01:24:41;;;;;;;6.43;4.95;;;;;;;;;;2039105;29;20027;-89
2022/09/12 01:25:47;;;;;;;6.90;5.63;;;;;;;;;;2030714;29;20080;-90
2022/09/12 01:27:29;;;;;;;8.68;4.93;;;;;;;;;;2023616;29;20036;-89
2022/09/12 01:28:35;;;;;;;;;;;;;;;;;;2002034;29;20364;-89
2022/09/12 01:30:16;;;;;;;7.32;5.30;;;;;;;;;;2031178;29;19927;-89
2022/09/12 01:31:34;;;;;;;8.85;5.35;;;;;;;;;;1692034;29;10000571;-89
2022/09/12 01:33:12;;;;;;;6.70;5.30;;;;;;;;;;2030662;29;20443;-90
2022/09/12 01:34:21;;;;;;;8.52;5.40;;;;;;;;;;2035148;29;20551;-89
2022/09/12 01:35:49;;;;;;;8.45;5.53;;;;;;;;;;2030711;29;20069;-89
2022/09/12 01:37:10;;;;;;;6.97;5.38;;;;;;;;;;2026396;29;20107;-90
2022/09/12 01:38:36;;;;;;;6.63;4.35;;;;;;;;;;2033474;29;20027;-89
2022/09/12 01:39:47;;;;;;;8.18;5.32;;;;;;;;;;2030560;29;20416;-89
2022/09/12 01:41:02;;;;;;;;;;;;;;;;;;2032622;29;20040;-90
2022/09/12 01:42:33;;;;;;;8.13;4.85;;;;;;;;;;2038617;29;19921;-89
2022/09/12 01:43:40;;;;;;;7.40;5.03;;;;;;;;;;2038827;29;20024;-90
2022/09/12 01:45:05;;;;;;;7.57;5.70;;;;;;;;;;2030448;29;20102;-89
2022/09/12 01:46:20;;;;;;;6.30;4.80;;;;;;;;;;2025883;29;20158;-90
2022/09/12 01:47:29;;;;;;;6.10;4.75;;;;;;;;;;2032669;29;20064;-89
2022/09/12 01:48:38;;;;;;;6.97;5.50;;;;;;;;;;2038901;29;20107;-90
2022/09/12 01:50:23;;;;;;;7.18;5.05;;;;;;;;;;2031344;29;20032;-89
2022/09/12 01:51:56;;;;;;;6.35;4.55;;;;;;;;;;2037151;29;20059;-89
2022/09/12 01:53:43;;;;;;;6.68;4.63;;;;;;;;;;2030636;29;20028;-90
2022/09/12 01:54:56;;;;;;;7.25;4.70;;;;;;;;;;2005002;29;20312;-89
2022/09/12 01:56:09;;;;;;;6.28;4.72;;;;;;;;;;2000833;29;20054;-89
2022/09/12 01:57:21;;;;;;;7.20;4.72;;;;;;;;;;2008630;29;20415;-90
2022/09/12 01:58:29;;;;;;;5.20;4.10;;;;;;;;;;2006883;29;20029;-89
2022/09/12 01:59:34;;;;;;;7.32;4.55;;;;;;;;;;2007858;29;20029;-90
2022/09/12 02:00:42;;;;;;;8.40;4.95;;;;;;;;;;2034440;29;20123;-89
2022/09/12 02:01:53;;;;;;;6.90;4.35;;;;;;;;;;2030543;29;20027;-89
2022/09/12 02:03:14;;;;;;;7.35;4.90;;;;;;;;;;2031945;29;20032;-88
2022/09/12 02:04:19;;;;;;;6.28;4.63;;;;;;;;;;2030765;29;20043;-90
2022/09/12 02:05:29;;;;;;;7.03;4.80;;;;;;;;;;2023488;29;20036;-90
2022/09/12 02:06:40;;;;;;;7.97;4.97;;;;;;;;;;2031830;29;20116;-89
2022/09/12 02:07:52;;;;;;;7.35;4.55;;;;;;;;;;2030615;29;20035;-90
2022/09/12 02:09:18;;;;;;;6.60;4.68;;;;;;;;;;2032249;29;20040;-90
2022/09/12 02:10:29;;;;;;;5.93;4.30;;;;;;;;;;2039352;29;20407;-90
2022/09/12 02:11:33;;;;;;;8.20;5.00;;;;;;;;;;2039373;29;20032;-89
2022/09/12 02:12:59;;;;;;;7.03;4.57;;;;;;;;;;2030570;29;20028;-89
2022/09/12 02:14:05;;;;;;;5.95;4.82;;;;;;;;;;2031927;29;20044;-90
2022/09/12 02:15:07;;;;;;;5.55;4.50;;;;;;;;;;2024850;29;20049;-91
2022/09/12 02:16:19;;;;;;;7.62;4.74;;;;;;;;;;1997378;29;10272947;-90
2022/09/12 02:17:23;;;;;;;5.20;4.38;;;;;;;;;;2033549;29;20716;-90
2022/09/12 02:18:26;;;;;;;6.22;4.30;;;;;;;;;;2031959;29;20040;-90
2022/09/12 02:19:36;;;;;;;6.90;4.72;;;;;;;;;;2032325;29;20434;-89
2022/09/12 02:20:38;;;;;;;6.45;4.45;;;;;;;;;;2040578;29;20032;-89
2022/09/12 02:21:44;;;;;;;8.13;4.55;;;;;;;;;;2031917;29;20035;-90
2022/09/12 02:22:47;;;;;;;5.90;4.63;;;;;;;;;;2024726;29;20031;-89
2022/09/12 02:23:52;;;;;;;7.60;4.90;;;;;;;;;;2031928;29;20333;-90
2022/09/12 02:24:55;;;;;;;8.57;5.07;;;;;;;;;;2032633;29;20500;-90
2022/09/12 02:26:02;;;;;;;6.43;4.78;;;;;;;;;;2031697;29;20127;-89
2022/09/12 02:27:07;;;;;;;6.03;4.78;;;;;;;;;;2033019;29;20330;-91
2022/09/12 02:28:14;;;;;;;7.53;4.90;;;;;;;;;;2040445;29;20419;-90
2022/09/12 02:29:14;;;;;;;6.15;4.70;;;;;;;;;;2032026;29;20028;-89
2022/09/12 02:30:16;;;;;;;7.35;5.28;;;;;;;;;;2023990;29;20397;-90
2022/09/12 02:31:25;;;;;;;5.10;4.60;;;;;;;;;;2024266;29;20032;-90
2022/09/12 02:32:35;;;;;;;6.85;5.20;;;;;;;;;;2025136;29;20032;-89
2022/09/12 02:33:53;;;;;;;6.32;5.10;;;;;;;;;;2025104;29;20033;-89
2022/09/12 02:34:59;;;;;;;7.00;4.80;;;;;;;;;;2034033;29;20492;-89
2022/09/12 02:36:05;;;;;;;6.10;4.85;;;;;;;;;;2031721;29;20032;-89
2022/09/12 02:37:22;;;;;;;5.07;4.35;;;;;;;;;;2024664;29;20079;-88
2022/09/12 02:38:39;;;;;;;7.07;4.82;;;;;;;;;;2032043;29;20389;-88
2022/09/12 02:39:40;;;;;;;6.55;5.10;;;;;;;;;;2032645;29;20039;-89
2022/09/12 02:40:40;;;;;;;7.72;5.35;;;;;;;;;;2032612;29;20425;-89
2022/09/12 02:41:41;;;;;;;7.43;5.47;;;;;;;;;;2031855;29;20379;-90
2022/09/12 02:42:41;;;;;;;6.85;4.97;;;;;;;;;;2032105;29;20032;-90
2022/09/12 02:43:50;;;;;;;8.66;5.02;;;;;;;;;;1888127;29;10251082;-88
2022/09/12 02:44:54;;;;;;;6.25;5.05;;;;;;;;;;2033023;29;20261;-89
2022/09/12 02:45:54;;;;;;;5.60;4.53;;;;;;;;;;2032616;29;20036;-90
2022/09/12 02:47:15;;;;;;;6.00;4.57;;;;;;;;;;2032426;29;20028;-90
2022/09/12 02:48:30;;;;;;;5.90;5.18;;;;;;;;;;2030255;29;20491;-90
2022/09/12 02:49:30;;;;;;;6.50;4.90;;;;;;;;;;2031713;29;20039;-89
2022/09/12 02:50:31;;;;;;;5.80;4.90;;;;;;;;;;2023834;29;20491;-88
2022/09/12 02:51:32;;;;;;;5.22;4.30;;;;;;;;;;2024019;29;20033;-88
2022/09/12 02:52:33;;;;;;;5.18;4.30;;;;;;;;;;2024042;29;20028;-88
2022/09/12 02:53:34;;;;;;;5.88;4.95;;;;;;;;;;2031722;29;20032;-89
2022/09/12 02:54:37;;;;;;;8.63;5.25;;;;;;;;;;2032594;29;20101;-89
2022/09/12 02:55:39;;;;;;;6.80;5.10;;;;;;;;;;2032540;29;20111;-89
2022/09/12 02:56:41;;;;;;;6.30;5.00;;;;;;;;;;2032571;29;20118;-90
2022/09/12 02:57:41;;;;;;;5.93;4.65;;;;;;;;;;2031672;29;20028;-89
2022/09/12 02:58:42;;;;;;;6.85;5.47;;;;;;;;;;2024180;29;20349;-89
2022/09/12 02:59:44;;;;;;;8.57;5.32;;;;;;;;;;2031840;29;20533;-90
2022/09/12 03:00:56;;;;;;;6.40;5.35;;;;;;;;;;2031605;29;20028;-89
2022/09/12 03:02:27;;;;;;;6.38;5.53;;;;;;;;;;2025491;29;20531;-89
2022/09/12 03:03:43;;;;;;;;;;;;;;;;;;2028298;29;20032;-89
2022/09/12 03:05:01;;;;;;;5.75;4.72;;;;;;;;;;2031783;29;20005;-89
2022/09/12 03:06:15;;;;;;;6.53;4.85;;;;;;;;;;2031739;29;20431;-89
2022/09/12 03:07:41;;;;;;;5.40;4.32;;;;;;;;;;2025487;29;20115;-89
2022/09/12 03:09:00;;;;;;;6.20;4.75;;;;;;;;;;2027235;29;20519;-88
2022/09/12 03:10:17;;;;;;;6.18;4.55;;;;;;;;;;2026210;29;20033;-89
2022/09/12 03:12:01;;;;;;;8.55;4.93;;;;;;;;;;2031864;29;20138;-89
2022/09/12 03:13:25;;;;;;;4.38;3.97;;;;;;;;;;2032263;29;20028;-89
2022/09/12 03:15:00;;;;;;;5.85;4.80;;;;;;;;;;2031684;29;20079;-88
2022/09/12 03:16:36;;;;;;;8.02;5.07;;;;;;;;;;2031979;29;20032;-87
2022/09/12 03:17:42;;;;;;;5.47;4.00;;;;;;;;;;2032482;29;20125;-88
2022/09/12 03:19:21;;;;;;;5.28;4.35;;;;;;;;;;2031452;29;20039;-89
2022/09/12 03:20:51;;;;;;;5.55;4.78;;;;;;;;;;2032030;29;20034;-88
2022/09/12 03:22:01;;;;;;;6.72;4.57;;;;;;;;;;2032201;29;20035;-89
2022/09/12 03:23:08;;;;;;;6.93;4.65;;;;;;;;;;2032493;29;20041;-90
2022/09/12 03:24:20;;;;;;;6.75;4.45;;;;;;;;;;2031155;29;20031;-90
2022/09/12 03:25:31;;;;;;;6.43;4.57;;;;;;;;;;2033193;29;20112;-90
2022/09/12 03:26:36;;;;;;;5.93;4.85;;;;;;;;;;2033994;29;20036;-90
2022/09/12 03:27:49;;;;;;;4.47;4.05;;;;;;;;;;2031471;29;20028;-90
2022/09/12 03:28:50;;;;;;;4.75;4.28;;;;;;;;;;2031810;29;20354;-90
2022/09/12 03:29:52;;;;;;;4.18;3.78;;;;;;;;;;2031484;29;20079;-89
2022/09/12 03:30:55;;;;;;;4.88;4.05;;;;;;;;;;2023834;29;20038;-89
2022/09/12 03:31:57;;;;;;;5.63;4.57;;;;;;;;;;2023893;29;20187;-89
2022/09/12 03:32:57;;;;;;;5.70;4.60;;;;;;;;;;2023772;29;20025;-90
2022/09/12 03:34:00;;;;;;;5.00;4.28;;;;;;;;;;2031673;29;20133;-90
2022/09/12 03:35:01;;;;;;;4.85;4.13;;;;;;;;;;2031371;29;20449;-90
2022/09/12 03:36:02;;;;;;;6.00;5.00;;;;;;;;;;2023591;29;20091;-90
2022/09/12 03:37:02;;;;;;;6.13;4.78;;;;;;;;;;2031392;29;20470;-88
2022/09/12 03:38:03;;;;;;;5.40;4.32;;;;;;;;;;2031434;29;20031;-89
2022/09/12 03:39:04;;;;;;;5.05;4.55;;;;;;;;;;2023712;29;20040;-90
2022/09/12 03:40:06;;;;;;;6.00;4.80;;;;;;;;;;2023728;29;20029;-90
2022/09/12 03:41:07;;;;;;;6.15;4.32;;;;;;;;;;2023644;29;20435;-90
2022/09/12 03:42:07;;;;;;;4.85;4.40;;;;;;;;;;2031558;29;20036;-90
2022/09/12 03:43:09;;;;;;;5.25;3.95;;;;;;;;;;2032226;29;20050;-90
2022/09/12 03:44:10;;;;;;;5.05;4.55;;;;;;;;;;2031406;29;20071;-90
2022/09/12 03:45:11;;;;;;;6.32;4.90;;;;;;;;;;2031450;29;20032;-90
2022/09/12 03:46:12;;;;;;;5.30;4.20;;;;;;;;;;2031426;29;20396;-89
2022/09/12 03:47:12;;;;;;;6.47;4.88;;;;;;;;;;2031328;29;20137;-90
2022/09/12 03:48:13;;;;;;;7.10;4.35;;;;;;;;;;2031455;29;20493;-90
2022/09/12 03:49:13;;;;;;;6.15;4.68;;;;;;;;;;2031436;29;20059;-90
2022/09/12 03:50:14;;;;;;;6.00;4.30;;;;;;;;;;2032077;29;20051;-89
2022/09/12 03:51:14;;;;;;;6.22;4.60;;;;;;;;;;2031247;29;20028;-90
2022/09/12 03:52:14;;;;;;;6.22;4.45;;;;;;;;;;2031344;29;20067;-91
2022/09/12 03:53:15;;;;;;;5.90;4.32;;;;;;;;;;2031226;29;20032;-90
2022/09/12 03:54:15;;;;;;;5.47;4.55;;;;;;;;;;2031226;29;20023;-90
2022/09/12 03:55:16;;;;;;;6.00;4.88;;;;;;;;;;2023529;29;20419;-90
2022/09/12 03:56:24;;;;;;;6.91;4.46;;;;;;;;;;1939911;29;10355610;-89
2022/09/12 03:57:25;;;;;;;5.88;4.38;;;;;;;;;;2031570;29;20245;-90
2022/09/12 03:58:29;;;;;;;7.90;5.05;;;;;;;;;;2032150;29;20043;-88
2022/09/12 03:59:30;;;;;;;8.15;4.25;;;;;;;;;;2031321;29;20444;-88
2022/09/12 04:00:30;;;;;;;4.80;4.32;;;;;;;;;;2023529;29;20061;-88
2022/09/12 04:01:31;;;;;;;5.95;4.43;;;;;;;;;;2031310;29;20547;-88
2022/09/12 04:02:32;;;;;;;5.53;4.10;;;;;;;;;;2039293;29;20035;-88
2022/09/12 04:03:32;;;;;;;5.32;4.00;;;;;;;;;;2032081;29;20481;-88
2022/09/12 04:04:33;;;;;;;5.30;4.22;;;;;;;;;;2031883;29;20321;-88
2022/09/12 04:05:34;;;;;;;5.13;4.13;;;;;;;;;;2032021;29;20032;-88
2022/09/12 04:06:35;;;;;;;6.70;4.45;;;;;;;;;;2031937;29;20110;-88
2022/09/12 04:07:35;;;;;;;6.00;4.03;;;;;;;;;;2032410;29;20032;-88
2022/09/12 04:08:36;;;;;;;5.10;4.03;;;;;;;;;;2031218;29;20084;-88
2022/09/12 04:09:37;;;;;;;6.15;4.85;;;;;;;;;;2023609;29;20028;-88
2022/09/12 04:10:37;;;;;;;6.25;4.55;;;;;;;;;;2031350;29;20083;-88
2022/09/12 04:11:38;;;;;;;5.95;4.40;;;;;;;;;;2031162;29;20034;-89
2022/09/12 04:12:38;;;;;;;5.13;4.50;;;;;;;;;;2023241;29;20040;-88
2022/09/12 04:13:40;;;;;;;5.95;4.43;;;;;;;;;;2031301;29;20546;-88
2022/09/12 04:14:40;;;;;;;5.00;4.15;;;;;;;;;;2031228;29;20498;-88
2022/09/12 04:15:41;;;;;;;7.03;4.90;;;;;;;;;;2031186;29;20039;-88
2022/09/12 04:16:41;;;;;;;5.53;4.20;;;;;;;;;;2031787;29;20649;-88
2022/09/12 04:17:42;;;;;;;6.05;4.38;;;;;;;;;;2032061;29;20034;-89
2022/09/12 04:18:43;;;;;;;6.05;4.80;;;;;;;;;;2031177;29;20032;-90
2022/09/12 04:19:43;;;;;;;6.65;5.05;;;;;;;;;;2035841;29;20020;-89
2022/09/12 04:20:43;;;;;;;6.05;4.70;;;;;;;;;;2037568;29;20208;-90
2022/09/12 04:21:44;;;;;;;7.20;4.93;;;;;;;;;;2035802;29;20032;-89
2022/09/12 04:22:44;;;;;;;5.85;4.25;;;;;;;;;;2033875;29;20024;-89
2022/09/12 04:23:45;;;;;;;5.32;4.32;;;;;;;;;;2023376;29;20028;-89
2022/09/12 04:24:45;;;;;;;6.03;4.88;;;;;;;;;;2023176;29;20036;-89
2022/09/12 04:25:55;;;;;;;6.18;4.88;;;;;;;;;;2023341;29;20059;-89
2022/09/12 04:26:56;;;;;;;4.97;4.22;;;;;;;;;;2031348;29;20250;-89
2022/09/12 04:27:56;;;;;;;6.57;3.88;;;;;;;;;;2031217;29;20035;-89
2022/09/12 04:28:57;;;;;;;5.40;4.15;;;;;;;;;;2031110;29;20028;-89
2022/09/12 04:29:59;;;;;;;5.75;4.55;;;;;;;;;;1684768;29;10242976;-89
2022/09/12 04:31:07;;;;;;;4.45;4.05;;;;;;;;;;2031740;29;20071;-89
2022/09/12 04:32:08;;;;;;;4.03;3.55;;;;;;;;;;2031912;29;20599;-89
2022/09/12 04:33:09;;;;;;;5.25;4.75;;;;;;;;;;2031812;29;20039;-89
2022/09/12 04:34:09;;;;;;;4.15;3.75;;;;;;;;;;2031248;29;20060;-88
2022/09/12 04:35:11;;;;;;;6.35;3.60;;;;;;;;;;2030813;29;20594;-89
2022/09/12 04:36:15;;;;;;;4.38;3.50;;;;;;;;;;2030578;29;20044;-89
2022/09/12 04:37:15;;;;;;;4.22;3.60;;;;;;;;;;2031061;29;20024;-90
2022/09/12 04:38:16;;;;;;;4.13;3.42;;;;;;;;;;2030966;29;20580;-90
2022/09/12 04:39:16;;;;;;;4.55;3.40;;;;;;;;;;1682813;29;10271095;-89
2022/09/12 04:40:17;;;;;;;4.80;3.80;;;;;;;;;;2031798;29;20455;-88
2022/09/12 04:41:27;;;;;;;4.30;3.42;;;;;;;;;;2032134;29;20205;-89
2022/09/12 04:42:28;;;;;;;3.78;3.42;;;;;;;;;;2031871;29;20085;-89
2022/09/12 04:43:29;;;;;;;3.53;3.10;;;;;;;;;;2031042;29;20044;-89
2022/09/12 04:44:30;;;;;;;4.68;3.03;;;;;;;;;;2023204;29;20108;-89
2022/09/12 04:45:30;;;;;;;3.47;3.17;;;;;;;;;;2031136;29;20081;-89
2022/09/12 04:46:38;;;;;;;3.50;3.20;;;;;;;;;;2030899;29;20028;-88
2022/09/12 04:47:38;;;;;;;3.33;2.80;;;;;;;;;;2033036;29;20052;-86
2022/09/12 04:48:42;;;;;;;3.00;2.70;;;;;;;;;;2039606;29;20267;-87
2022/09/12 04:49:43;;;;;;;5.05;2.88;;;;;;;;;;2031479;29;20483;-88
2022/09/12 04:50:43;;;;;;;3.38;3.08;;;;;;;;;;2031574;29;20048;-89
2022/09/12 04:51:45;;;;;;;3.97;3.45;;;;;;;;;;2031483;29;20103;-89
2022/09/12 04:52:49;;;;;;;4.40;3.22;;;;;;;;;;2040101;29;20019;-89
2022/09/12 04:53:51;;;;;;;3.03;2.72;;;;;;;;;;2030780;29;20031;-89
2022/09/12 04:54:52;;;;;;;3.97;2.97;;;;;;;;;;2023098;29;20456;-89
2022/09/12 04:55:52;;;;;;;3.85;2.90;;;;;;;;;;2023145;29;20032;-89
2022/09/12 04:56:54;;;;;;;3.08;2.75;;;;;;;;;;2030873;29;20031;-88
2022/09/12 04:57:54;;;;;;;3.95;2.70;;;;;;;;;;2031700;29;20025;-90
2022/09/12 04:59:01;;;;;;;3.50;2.53;;;;;;;;;;2030786;29;20033;-89
2022/09/12 05:00:04;;;;;;;3.17;2.40;;;;;;;;;;2024180;29;20119;-88
2022/09/12 05:01:07;;;;;;;4.78;2.72;;;;;;;;;;2032100;29;20103;-90
2022/09/12 05:02:08;;;;;;;3.65;2.47;;;;;;;;;;2033025;29;20081;-89
2022/09/12 05:03:08;;;;;;;3.00;2.63;;;;;;;;;;2032455;29;20130;-89
2022/09/12 05:04:10;;;;;;;3.40;2.53;;;;;;;;;;1683597;29;10273875;-90
2022/09/12 05:05:11;;;;;;;2.60;2.35;;;;;;;;;;2030844;29;20036;-90
2022/09/12 05:06:17;;;;;;;2.45;2.25;;;;;;;;;;2030980;29;20035;-89
2022/09/12 05:07:20;;;;;;;3.47;2.42;;;;;;;;;;2030754;29;20048;-89
2022/09/12 05:08:20;;;;;;;4.60;2.70;;;;;;;;;;2023509;29;20119;-88
2022/09/12 05:09:20;;;;;;;2.83;2.63;;;;;;;;;;2030848;29;20028;-89
2022/09/12 05:10:22;;;;;;;2.65;2.40;;;;;;;;;;2031624;29;20080;-90
2022/09/12 05:11:27;;;;;;;4.80;2.63;;;;;;;;;;2031509;29;20020;-90
2022/09/12 05:12:27;;;;;;;3.58;2.72;;;;;;;;;;2030869;29;20063;-89
2022/09/12 05:13:28;;;;;;;3.50;2.60;;;;;;;;;;2031080;29;20468;-90
2022/09/12 05:14:28;;;;;;;3.42;2.90;;;;;;;;;;2031572;29;20459;-90
2022/09/12 05:15:29;;;;;;;2.88;2.60;;;;;;;;;;2030907;29;20051;-90
2022/09/12 05:16:31;;;;;;;2.85;2.35;;;;;;;;;;1681110;29;10209352;-88
2022/09/12 05:17:31;;;;;;;3.13;2.83;;;;;;;;;;2023142;29;20030;-89
2022/09/12 05:18:33;;;;;;;4.45;2.90;;;;;;;;;;2038568;29;20031;-88
2022/09/12 05:19:35;;;;;;;3.28;2.97;;;;;;;;;;2038429;29;20035;-89
2022/09/12 05:20:36;;;;;;;5.15;3.33;;;;;;;;;;2030885;29;20024;-89
2022/09/12 05:21:37;;;;;;;4.78;2.88;;;;;;;;;;2030879;29;20123;-88
2022/09/12 05:22:37;;;;;;;4.25;3.10;;;;;;;;;;2031024;29;20020;-88
2022/09/12 05:23:38;;;;;;;4.07;3.25;;;;;;;;;;2023069;29;20401;-90
2022/09/12 05:24:43;;;;;;;5.30;2.80;;;;;;;;;;2023054;29;20028;-88
2022/09/12 05:25:49;;;;;;;3.22;2.90;;;;;;;;;;2030915;29;20016;-88
2022/09/12 05:26:52;;;;;;;3.00;2.70;;;;;;;;;;2030675;29;20594;-89
2022/09/12 05:27:53;;;;;;;4.20;3.20;;;;;;;;;;2031376;29;20411;-88
2022/09/12 05:28:54;;;;;;;3.90;3.05;;;;;;;;;;2031278;29;20103;-91
2022/09/12 05:29:54;;;;;;;3.28;2.97;;;;;;;;;;2031059;29;20034;-90
2022/09/12 05:31:17;;;;;;;3.83;3.10;;;;;;;;;;2031199;29;20031;-90
2022/09/12 05:32:20;;;;;;;3.78;2.63;;;;;;;;;;2034528;29;20035;-88
2022/09/12 05:33:27;;;;;;;3.42;2.70;;;;;;;;;;2035046;29;20065;-96
2022/09/12 05:34:44;;;;;;;4.47;2.80;;;;;;;;;;2027787;29;20032;-96
2022/09/12 05:35:51;;;;;;;4.07;3.03;;;;;;;;;;2029987;29;20031;-96
2022/09/12 05:36:51;;;;;;;3.58;3.25;;;;;;;;;;2026375;29;20052;-95
2022/09/12 05:37:52;;;;;;;3.08;2.70;;;;;;;;;;2024814;29;20429;-96
2022/09/12 05:38:53;;;;;;;3.67;2.75;;;;;;;;;;2025987;29;20045;-96
2022/09/12 05:39:53;;;;;;;5.07;3.10;;;;;;;;;;2025207;29;20453;-96
2022/09/12 05:41:05;;;;;;;2.83;2.55;;;;;;;;;;2034811;29;20040;-95
2022/09/12 05:42:06;;;;;;;3.88;3.03;;;;;;;;;;2033776;29;20020;-96
2022/09/12 05:43:07;;;;;;;3.10;2.78;;;;;;;;;;2033749;29;20020;-96
2022/09/12 05:44:11;;;;;;;3.75;2.75;;;;;;;;;;2025214;29;20024;-96
2022/09/12 05:45:13;;;;;;;3.42;3.13;;;;;;;;;;2025328;29;20088;-95
2022/09/12 05:46:16;;;;;;;3.35;2.80;;;;;;;;;;2026599;29;20119;-95
2022/09/12 05:47:19;;;;;;;4.20;3.25;;;;;;;;;;2026269;29;20025;-96
2022/09/12 05:48:25;;;;;;;2.55;2.33;;;;;;;;;;2028045;29;20220;-95
2022/09/12 05:49:26;;;;;;;5.43;2.80;;;;;;;;;;2020911;29;20041;-96
2022/09/12 05:50:26;;;;;;;4.93;2.55;;;;;;;;;;2027444;29;20400;-94
2022/09/12 05:51:37;;;;;;;2.50;2.30;;;;;;;;;;2035517;29;20030;-96
2022/09/12 05:52:41;;;;;;;2.70;2.40;;;;;;;;;;1848494;29;10002484;-90
2022/09/12 05:53:42;;;;;;;4.28;2.42;;;;;;;;;;2032497;29;20245;-88
2022/09/12 05:54:42;;;;;;;4.32;2.80;;;;;;;;;;2032189;29;20530;-89
2022/09/12 05:55:43;;;;;;;3.03;2.13;;;;;;;;;;2040293;29;20071;-88
2022/09/12 05:56:44;;;;;;;2.50;2.30;;;;;;;;;;2032318;29;20031;-90
2022/09/12 05:57:45;;;;;;;2.75;2.55;;;;;;;;;;2024625;29;20448;-89
2022/09/12 05:58:51;;;;;;;4.22;2.38;;;;;;;;;;2025470;29;20036;-89
2022/09/12 05:59:51;;;;;;;3.08;2.10;;;;;;;;;;2032809;29;20020;-89
2022/09/12 06:00:52;;;;;;;4.25;2.10;;;;;;;;;;2024434;29;20599;-90
2022/09/12 06:01:52;;;;;;;2.17;1.98;;;;;;;;;;2024397;29;20031;-90
2022/09/12 06:02:53;;;;;;;4.15;2.08;;;;;;;;;;2024485;29;20028;-88
2022/09/12 06:03:56;;;;;;;2.25;1.95;;;;;;;;;;2032272;29;20106;-89
2022/09/12 06:04:57;;;;;;;2.00;1.80;;;;;;;;;;2032220;29;20184;-89
2022/09/12 06:06:01;;;;;;;1.70;1.60;;;;;;;;;;2024231;29;20085;-91
2022/09/12 06:07:01;;;;;;;1.60;1.50;;;;;;;;;;2032717;29;20032;-91
2022/09/12 06:08:02;;;;;;;1.77;1.67;;;;;;;;;;2040119;29;20027;-91
2022/09/12 06:09:04;;;;;;;1.95;1.85;;;;;;;;;;2032134;29;20028;-89
2022/09/12 06:10:05;;;;;;;2.17;1.20;;;;;;;;;;2024327;29;20392;-89
2022/09/12 06:11:09;;;;;;;5.15;1.58;;;;;;;;;;2032349;29;20036;-91
2022/09/12 06:12:10;;;;;;;1.40;1.30;;;;;;;;;;2035654;29;20028;-95
2022/09/12 06:13:10;;;;;;;1.80;1.38;;;;;;;;;;2026025;29;20052;-95
2022/09/12 06:14:16;;;;;;;2.03;1.63;;;;;;;;;;2037939;29;20199;-96
2022/09/12 06:15:17;;;;;;;1.52;1.42;;;;;;;;;;2035364;29;20028;-95
2022/09/12 06:16:20;;;;;;;1.90;1.42;;;;;;;;;;2035424;29;20020;-96
2022/09/12 06:17:21;;;;;;;2.13;1.30;;;;;;;;;;2033991;29;20027;-94
2022/09/12 06:18:21;;;;;;;1.50;1.25;;;;;;;;;;2034060;29;20102;-95
2022/09/12 06:19:22;;;;;;;1.35;1.25;;;;;;;;;;2034867;29;20024;-90
2022/09/12 06:20:23;;;;;;;2.65;1.17;;;;;;;;;;2032161;29;20036;-91
2022/09/12 06:21:25;;;;;;;1.27;1.17;;;;;;;;;;2040035;29;20185;-89
2022/09/12 06:22:26;;;;;;;1.30;1.20;;;;;;;;;;2032221;29;20027;-90
2022/09/12 06:23:26;;;;;;;2.28;1.40;;;;;;;;;;2024309;29;20431;-89
2022/09/12 06:24:27;;;;;;;2.47;1.35;;;;;;;;;;2031966;29;20130;-90
2022/09/12 06:25:27;;;;;;;1.52;1.27;;;;;;;;;;2032120;29;20051;-89
2022/09/12 06:26:28;;;;;;;1.80;1.00;;;;;;;;;;2031975;29;20079;-91
2022/09/12 06:27:28;;;;;;;1.35;1.08;;;;;;;;;;2039742;29;20051;-90
2022/09/12 06:28:30;;;;;;;1.33;1.23;;;;;;;;;;2032131;29;20479;-89
2022/09/12 06:29:31;;;;;;;1.58;1.23;;;;;;;;;;2032745;29;20058;-89
2022/09/12 06:30:31;;;;;;;1.33;1.00;;;;;;;;;;1693773;29;10001775;-89
2022/09/12 06:31:35;;;;;;;1.15;1.02;;;;;;;;;;2039867;29;20240;-88
2022/09/12 06:32:35;;;;;;;1.85;1.50;;;;;;;;;;2033152;29;20503;-90